Time;durP1;ratioP1;P1;durP2;ratioP2;P2;SDS_P1;SDS_P2;PMS_P1;PMS_P2;Temp;Humidity;BMP_temperature;BMP_pressure;BME280_temperature;BME280_humidity;BME280_pressure;Samples;Min_cycle;Max_cycle;Signal;HPM_P1;HPM_P2
2022/06/16 00:00:37;;;;;;;12.40;6.35;;;;;;;18.23;52.13;100554.44;5066771;28;20056;-46
2022/06/16 00:03:06;;;;;;;11.82;6.85;;;;;;;18.20;51.64;100555.41;5064530;28;20063;-48
2022/06/16 00:05:34;;;;;;;15.02;6.68;;;;;;;18.18;52.15;100559.84;5064268;28;20072;-46
2022/06/16 00:08:04;;;;;;;10.45;6.50;;;;;;;18.16;52.50;100561.63;5063573;28;20044;-46
2022/06/16 00:10:30;;;;;;;12.70;6.65;;;;;;;18.10;52.30;100561.75;5067370;28;20041;-45
2022/06/16 00:12:57;;;;;;;12.32;6.30;;;;;;;18.07;52.21;100567.09;5069359;28;20040;-48
2022/06/16 00:15:27;;;;;;;12.65;6.68;;;;;;;18.04;52.49;100561.91;5070515;28;20053;-48
2022/06/16 00:17:55;;;;;;;12.65;6.68;;;;;;;17.98;52.55;100566.41;5069239;28;20071;-46
2022/06/16 00:20:22;;;;;;;12.00;6.75;;;;;;;17.94;52.84;100562.13;5069159;28;20049;-45
2022/06/16 00:22:49;;;;;;;10.55;6.00;;;;;;;17.91;52.83;100558.75;5068022;28;20052;-48
2022/06/16 00:25:16;;;;;;;11.38;7.18;;;;;;;17.89;52.30;100566.63;5067792;28;20733;-46
2022/06/16 00:27:43;;;;;;;13.23;6.97;;;;;;;17.86;52.93;100564.09;5070520;28;20041;-46
2022/06/16 00:30:11;;;;;;;12.13;7.20;;;;;;;17.84;53.15;100568.53;5068640;28;20675;-48
2022/06/16 00:32:39;;;;;;;10.90;6.72;;;;;;;17.81;53.37;100568.59;5068218;28;20048;-47
2022/06/16 00:35:06;;;;;;;13.07;6.90;;;;;;;17.77;52.52;100569.56;5065102;28;20522;-51
2022/06/16 00:37:33;;;;;;;15.55;7.40;;;;;;;17.75;53.24;100566.09;5071046;28;20048;-48
2022/06/16 00:39:59;;;;;;;12.85;7.05;;;;;;;17.69;53.90;100567.13;5070497;28;20060;-49
2022/06/16 00:42:26;;;;;;;13.02;7.88;;;;;;;17.67;53.92;100568.94;5069388;28;20097;-51
2022/06/16 00:44:57;;;;;;;12.40;7.22;;;;;;;17.67;53.46;100568.94;5070063;28;20056;-46
2022/06/16 00:47:27;;;;;;;14.13;7.53;;;;;;;17.65;53.39;100571.59;5066850;28;20046;-44
2022/06/16 00:49:56;;;;;;;11.60;6.95;;;;;;;17.62;53.97;100571.66;5065097;28;20048;-48
2022/06/16 00:52:27;;;;;;;12.23;7.78;;;;;;;17.59;54.17;100579.56;5066581;28;20040;-44
2022/06/16 00:57:40;;;;;;;17.38;8.65;;;;;;;17.49;54.58;100581.53;5043416;27;20403;-44
2022/06/16 01:00:16;;;;;;;15.98;8.27;;;;;;;17.45;54.07;100575.53;5014158;28;20050;-44
2022/06/16 01:02:42;;;;;;;16.02;8.45;;;;;;;17.40;54.37;100573.91;5012430;28;20092;-47
2022/06/16 01:05:09;;;;;;;12.50;7.78;;;;;;;17.38;54.62;100575.69;5011966;28;20085;-50
2022/06/16 01:07:40;;;;;;;12.98;7.25;;;;;;;17.36;54.52;100583.59;5013067;28;20054;-45
2022/06/16 01:10:08;;;;;;;13.07;8.30;;;;;;;17.31;55.42;100588.06;5014600;28;20046;-42
2022/06/16 01:21:18;;;;;;;15.25;7.22;;;;;;;16.99;55.79;100576.53;5072257;27;20398;-47
2022/06/16 01:34:41;;;;;;;15.80;7.35;;;;;;;16.66;56.96;100590.25;5040294;27;20402;-42
2022/06/16 01:45:22;;;;;;;15.70;8.68;;;;;;;16.46;57.48;100599.34;5093820;27;20382;-47
2022/06/16 01:47:51;;;;;;;15.90;7.30;;;;;;;16.41;57.38;100598.53;5023962;28;20049;-47
2022/06/16 01:50:24;;;;;;;13.82;7.32;;;;;;;16.35;57.98;100598.66;5022974;28;20054;-47
2022/06/16 01:52:57;;;;;;;14.63;7.95;;;;;;;16.28;58.06;100597.91;5030821;28;20048;-51
2022/06/16 01:55:30;;;;;;;14.38;7.28;;;;;;;16.24;58.19;100591.03;5024489;28;20053;-45
2022/06/16 01:58:03;;;;;;;14.27;7.75;;;;;;;16.22;57.87;100595.41;5038388;28;20107;-50
2022/06/16 02:00:35;;;;;;;12.95;7.00;;;;;;;16.15;58.53;100595.50;5028680;28;20065;-51
2022/06/16 02:03:08;;;;;;;13.43;7.70;;;;;;;16.10;58.48;100597.34;5044311;28;20049;-51
2022/06/16 02:05:50;;;;;;;11.60;7.20;;;;;;;16.04;58.26;100607.88;5043663;28;20509;-45
2022/06/16 02:08:24;;;;;;;13.20;6.80;;;;;;;16.04;58.56;100613.97;5045275;28;20049;-50
2022/06/16 02:10:57;;;;;;;12.52;6.47;;;;;;;16.01;58.54;100610.56;5039412;28;20513;-46
2022/06/16 02:13:31;;;;;;;16.30;6.70;;;;;;;15.98;58.99;100613.22;5043836;28;20500;-46
2022/06/16 02:16:04;;;;;;;12.85;6.53;;;;;;;15.96;58.86;100612.38;5042040;28;20512;-45
2022/06/16 02:18:36;;;;;;;12.38;7.45;;;;;;;15.94;58.93;100618.47;5039510;28;20409;-45
2022/06/16 02:23:42;;;;;;;13.85;6.88;;;;;;;15.94;59.24;100631.53;5082857;27;20400;-49
2022/06/16 02:26:09;;;;;;;12.27;6.45;;;;;;;15.91;58.67;100639.41;5061370;28;20048;-46
2022/06/16 02:28:54;;;;;;;14.52;6.75;;;;;;;15.83;58.20;100638.66;5043278;28;20449;-49
2022/06/16 02:31:38;;;;;;;13.10;7.03;;;;;;;15.81;58.88;100643.06;5043321;28;20117;-51
2022/06/16 02:55:19;;;;;;;15.55;7.00;;;;;;;15.67;59.35;100658.91;5042018;27;20756;-49
2022/06/16 03:03:33;;;;;;;17.33;7.75;;;;;;;15.52;59.32;100667.81;5062357;27;20939;-49
2022/06/16 03:06:01;;;;;;;11.95;6.88;;;;;;;15.56;59.79;100674.72;5041198;28;20053;-45
2022/06/16 03:08:29;;;;;;;13.32;7.95;;;;;;;15.56;59.75;100674.72;5038177;28;20041;-48
2022/06/16 03:10:58;;;;;;;13.35;7.13;;;;;;;15.56;59.81;100674.72;5044008;28;20493;-45
2022/06/16 03:13:28;;;;;;;15.82;7.70;;;;;;;15.56;59.55;100682.56;5044123;28;20107;-46
2022/06/16 03:15:56;;;;;;;13.23;7.15;;;;;;;15.55;59.38;100683.44;5069844;28;20057;-46
2022/06/16 03:18:23;;;;;;;16.83;7.22;;;;;;;15.52;59.54;100678.25;5065502;28;20099;-46
2022/06/16 03:21:08;;;;;;;12.15;6.93;;;;;;;15.50;59.67;100674.81;5030554;28;20529;-44
2022/06/16 03:23:35;;;;;;;13.40;6.28;;;;;;;15.50;59.54;100690.50;5023798;28;20080;-50
2022/06/16 03:26:02;;;;;;;16.60;7.65;;;;;;;15.47;59.87;100687.91;5024036;28;20107;-47
2022/06/16 03:28:29;;;;;;;14.40;7.68;;;;;;;15.46;59.46;100683.56;5024674;28;20079;-50
2022/06/16 03:30:55;;;;;;;15.90;7.25;;;;;;;15.44;59.71;100695.78;5023936;28;20058;-45
2022/06/16 03:33:22;;;;;;;15.35;7.55;;;;;;;15.41;59.44;100692.31;5024788;28;20092;-45
2022/06/16 03:35:49;;;;;;;14.32;7.57;;;;;;;15.38;59.84;100692.38;5028058;28;20104;-48
2022/06/16 03:43:38;;;;;;;15.60;7.57;;;;;;;15.47;60.88;100693.97;5035716;28;20416;-49
2022/06/16 03:46:05;;;;;;;16.20;9.05;;;;;;;15.41;60.77;100696.69;5019729;28;20041;-45
2022/06/16 03:48:39;;;;;;;13.43;7.35;;;;;;;15.36;61.06;100694.13;5016232;28;20387;-50
2022/06/16 03:51:06;;;;;;;15.75;7.97;;;;;;;15.34;60.93;100705.47;5006373;28;20494;-47
2022/06/16 03:53:33;;;;;;;15.90;7.38;;;;;;;15.33;60.38;100701.97;5015769;28;20489;-47
2022/06/16 03:55:59;;;;;;;16.23;8.10;;;;;;;15.30;60.91;100694.19;5010757;28;20116;-48
2022/06/16 03:58:26;;;;;;;15.77;7.80;;;;;;;15.29;60.27;100702.91;5018830;28;20053;-47
2022/06/16 04:00:53;;;;;;;14.70;7.30;;;;;;;15.27;60.57;100704.69;5008053;28;20053;-45
2022/06/16 04:06:06;;;;;;;14.20;7.72;;;;;;;15.22;60.90;100706.47;5010229;28;20142;-46
2022/06/16 04:08:33;;;;;;;13.93;6.82;;;;;;;15.21;60.30;100709.97;5015731;28;20096;-50
2022/06/16 04:11:26;;;;;;;13.10;6.78;;;;;;;15.16;60.96;100716.09;5012572;28;20100;-44
2022/06/16 04:13:46;;;;;;;11.05;6.88;;;;;;;15.11;60.29;100720.50;5009201;28;20091;-50
2022/06/16 04:16:12;;;;;;;16.77;8.52;;;;;;;15.09;60.37;100717.03;5017433;28;20045;-49
2022/06/16 04:18:39;;;;;;;12.30;7.22;;;;;;;15.08;60.64;100715.31;5005792;28;20523;-46
2022/06/16 04:21:06;;;;;;;14.45;7.90;;;;;;;15.09;60.71;100710.94;5009732;28;20045;-47
2022/06/16 04:23:33;;;;;;;13.27;7.40;;;;;;;15.11;61.25;100719.63;5010965;28;20092;-47
2022/06/16 04:26:00;;;;;;;10.73;6.38;;;;;;;15.14;60.88;100720.47;5008012;28;20050;-47
2022/06/16 04:28:27;;;;;;;13.52;7.43;;;;;;;15.20;60.94;100727.34;5006521;28;20050;-47
2022/06/16 04:30:53;;;;;;;14.55;7.45;;;;;;;15.23;61.05;100729.09;5010195;28;20049;-44
2022/06/16 04:33:20;;;;;;;12.55;6.60;;;;;;;15.26;60.84;100723.81;5009521;28;20100;-47
2022/06/16 04:35:47;;;;;;;14.05;7.32;;;;;;;15.28;61.14;100733.38;5005173;28;20045;-45
2022/06/16 04:38:13;;;;;;;12.23;6.72;;;;;;;15.29;61.17;100729.00;5004313;28;20092;-46
2022/06/16 04:40:40;;;;;;;14.32;7.18;;;;;;;15.28;61.28;100730.78;5006594;28;20049;-50
2022/06/16 04:43:07;;;;;;;12.82;7.15;;;;;;;15.29;61.30;100723.78;5010627;28;20050;-47
2022/06/16 04:45:33;;;;;;;12.85;6.95;;;;;;;15.31;61.53;100722.03;5003991;28;20109;-43
2022/06/16 04:48:00;;;;;;;13.40;6.80;;;;;;;15.33;61.26;100725.47;5010118;28;20046;-46
2022/06/16 04:50:26;;;;;;;13.50;6.18;;;;;;;15.39;61.30;100725.41;5006348;28;20115;-47
2022/06/16 04:52:53;;;;;;;14.60;7.00;;;;;;;15.47;61.29;100727.06;5005898;28;20042;-48
2022/06/16 04:55:20;;;;;;;13.02;6.90;;;;;;;15.57;61.65;100723.44;4999411;28;20497;-44
2022/06/16 04:57:47;;;;;;;12.52;7.00;;;;;;;15.67;61.78;100722.44;5001664;28;20053;-45
2022/06/16 05:00:16;;;;;;;12.43;6.85;;;;;;;15.77;61.39;100725.78;4993959;28;20111;-45
2022/06/16 05:02:51;;;;;;;14.02;6.45;;;;;;;15.85;61.27;100727.44;4985640;28;20053;-44
2022/06/16 05:05:18;;;;;;;13.13;7.13;;;;;;;15.90;61.34;100731.72;4994325;28;20053;-45
2022/06/16 05:07:45;;;;;;;13.48;7.35;;;;;;;15.94;61.28;100738.63;4995129;28;20053;-45
2022/06/16 05:10:12;;;;;;;10.88;6.32;;;;;;;15.99;61.10;100733.38;4995344;28;20053;-53
2022/06/16 05:12:39;;;;;;;16.75;7.18;;;;;;;16.06;61.25;100747.22;4997114;28;20445;-45
2022/06/16 05:15:06;;;;;;;14.02;7.22;;;;;;;16.10;61.11;100748.88;4996376;28;20050;-54
2022/06/16 05:17:33;;;;;;;11.02;6.93;;;;;;;16.14;61.11;100740.13;4999360;28;20080;-48
2022/06/16 05:20:00;;;;;;;18.08;7.45;;;;;;;16.21;61.40;100745.25;4993097;28;20105;-49
2022/06/16 05:22:27;;;;;;;14.23;6.40;;;;;;;16.29;61.63;100756.47;4992730;28;20046;-51
2022/06/16 05:24:54;;;;;;;11.18;6.13;;;;;;;16.39;61.15;100752.81;4996139;28;20046;-48
2022/06/16 05:27:21;;;;;;;12.20;6.00;;;;;;;16.48;60.89;100764.03;4989192;28;20506;-44
2022/06/16 05:29:47;;;;;;;14.07;6.72;;;;;;;16.55;60.47;100760.44;4991009;28;20057;-47
2022/06/16 05:32:14;;;;;;;10.48;5.50;;;;;;;16.62;60.88;100756.78;4997089;28;20077;-45
2022/06/16 05:34:42;;;;;;;11.45;6.45;;;;;;;16.75;61.12;100756.63;4998395;28;20682;-44
2022/06/16 05:37:09;;;;;;;11.52;5.80;;;;;;;16.90;61.29;100756.34;4994003;28;20042;-45
2022/06/16 05:39:35;;;;;;;13.80;6.72;;;;;;;17.05;61.37;100759.56;5003163;28;20046;-48
2022/06/16 05:42:02;;;;;;;10.27;5.50;;;;;;;17.18;60.71;100761.09;4993420;28;20054;-49
2022/06/16 05:44:29;;;;;;;10.82;6.50;;;;;;;17.30;60.69;100774.84;4997907;28;20055;-45
2022/06/16 05:46:56;;;;;;;9.98;5.85;;;;;;;17.42;60.26;100764.13;4990599;28;20134;-46
2022/06/16 05:49:22;;;;;;;12.38;6.10;;;;;;;17.54;59.56;100767.38;4991800;28;20116;-47
2022/06/16 05:51:49;;;;;;;12.63;6.18;;;;;;;17.66;60.23;100767.13;4995844;28;20049;-50
2022/06/16 05:54:16;;;;;;;13.05;5.72;;;;;;;17.84;60.49;100770.28;5001793;28;20482;-49
2022/06/16 05:56:42;;;;;;;13.32;5.38;;;;;;;18.04;60.33;100776.84;4999607;28;20049;-48
2022/06/16 05:59:09;;;;;;;9.43;6.22;;;;;;;18.23;60.47;100778.16;4997757;28;20058;-49
2022/06/16 06:01:37;;;;;;;10.60;5.40;;;;;;;18.46;60.08;100783.75;4995232;28;20129;-51
2022/06/16 06:04:04;;;;;;;10.20;5.72;;;;;;;18.68;59.68;100794.59;4996863;28;20050;-46
2022/06/16 06:06:31;;;;;;;9.77;6.40;;;;;;;18.87;59.11;100800.25;5000294;28;20501;-46
2022/06/16 06:17:21;;;;;;;11.30;5.65;;;;;;;19.63;58.28;100810.50;4979005;28;20054;-47
2022/06/16 06:19:48;;;;;;;9.70;5.63;;;;;;;19.80;57.68;100810.94;5001086;28;20045;-52
2022/06/16 06:22:19;;;;;;;9.88;5.35;;;;;;;19.98;57.72;100815.66;4999782;28;20506;-52
2022/06/16 06:24:48;;;;;;;10.15;4.95;;;;;;;20.12;56.92;100811.75;4985216;28;20046;-48
2022/06/16 06:32:29;;;;;;;12.10;5.60;;;;;;;20.39;55.41;100798.66;5014765;27;20423;-48
2022/06/16 06:35:16;;;;;;;8.55;4.85;;;;;;;20.48;55.96;100792.25;4996433;28;20052;-52
2022/06/16 06:37:43;;;;;;;6.82;4.78;;;;;;;20.67;55.29;100792.50;5000036;28;20100;-52
2022/06/16 06:40:20;;;;;;;8.82;4.60;;;;;;;20.83;54.98;100794.63;4996976;28;20046;-49
2022/06/16 06:42:47;;;;;;;10.88;4.57;;;;;;;20.93;54.55;100802.19;5003288;28;20086;-52
2022/06/16 06:45:14;;;;;;;11.10;5.60;;;;;;;20.92;54.19;100796.97;4995735;28;20058;-48
2022/06/16 06:47:40;;;;;;;7.38;4.93;;;;;;;20.91;53.99;100795.25;4996029;28;20046;-45
2022/06/16 06:50:07;;;;;;;9.45;5.70;;;;;;;20.97;53.97;100795.03;4994610;28;20052;-49
2022/06/16 06:52:34;;;;;;;10.38;4.90;;;;;;;21.06;53.91;100794.72;4997082;28;21085;-43
2022/06/16 06:55:01;;;;;;;10.68;4.65;;;;;;;21.21;53.70;100792.44;5000193;28;20046;-47
2022/06/16 06:57:30;;;;;;;10.07;4.63;;;;;;;21.37;53.15;100794.53;4996916;28;20085;-51
2022/06/16 06:59:57;;;;;;;8.65;4.70;;;;;;;21.58;53.38;100792.88;4997899;28;20486;-50
2022/06/16 07:02:23;;;;;;;7.78;4.47;;;;;;;21.80;53.23;100797.38;4978633;28;20121;-51
2022/06/16 07:04:50;;;;;;;9.68;4.90;;;;;;;22.06;52.92;100795.53;4993060;28;20161;-50
2022/06/16 07:07:21;;;;;;;9.05;4.05;;;;;;;22.27;52.36;100787.69;4993029;28;20074;-46
2022/06/16 07:09:47;;;;;;;7.97;3.95;;;;;;;22.47;51.15;100789.50;4998626;28;20101;-50
2022/06/16 07:12:16;;;;;;;8.95;4.57;;;;;;;22.67;51.19;100779.94;4997824;28;20565;-48
2022/06/16 07:14:47;;;;;;;12.27;4.95;;;;;;;22.89;51.35;100779.88;4996465;28;20046;-48
2022/06/16 07:17:16;;;;;;;8.60;4.47;;;;;;;23.10;50.35;100778.09;4994763;28;20104;-46
2022/06/16 07:19:43;;;;;;;9.25;4.72;;;;;;;23.28;50.75;100775.56;4996432;28;20049;-54
2022/06/16 07:22:09;;;;;;;9.30;4.55;;;;;;;23.47;49.44;100758.91;4992955;28;20057;-46
2022/06/16 07:24:37;;;;;;;7.32;4.40;;;;;;;23.66;49.17;100765.97;4997062;28;20069;-50
2022/06/16 07:27:05;;;;;;;6.00;4.35;;;;;;;23.91;48.67;100756.91;4994350;28;20053;-49
2022/06/16 07:29:32;;;;;;;10.75;4.70;;;;;;;24.10;47.65;100763.00;4993163;28;20058;-48
2022/06/16 07:32:05;;;;;;;7.97;4.32;;;;;;;24.23;47.83;100771.25;4993888;28;20112;-48
2022/06/16 07:34:32;;;;;;;7.32;4.20;;;;;;;24.44;47.86;100771.13;4996415;28;20058;-55
2022/06/16 07:36:59;;;;;;;7.70;4.25;;;;;;;24.59;46.42;100769.47;4994828;28;20049;-47
2022/06/16 07:39:26;;;;;;;9.30;4.53;;;;;;;24.68;46.51;100772.63;4999053;28;20050;-49
2022/06/16 07:41:53;;;;;;;8.30;4.05;;;;;;;24.84;46.61;100775.31;4997425;28;20130;-54
2022/06/16 07:44:20;;;;;;;7.85;4.45;;;;;;;25.04;46.27;100769.03;4988165;28;20062;-48
2022/06/16 07:46:47;;;;;;;11.00;4.03;;;;;;;25.21;45.35;100769.91;4981912;28;20054;-50
2022/06/16 07:49:21;;;;;;;7.50;4.32;;;;;;;25.37;45.23;100773.44;4981121;28;20043;-48
2022/06/16 07:51:49;;;;;;;8.38;4.32;;;;;;;25.65;45.20;100769.34;4984782;28;20058;-52
2022/06/16 07:54:17;;;;;;;8.15;3.95;;;;;;;25.96;44.53;100771.22;4988063;28;20572;-50
2022/06/16 07:57:04;;;;;;;8.30;3.63;;;;;;;26.12;44.04;100772.06;4981598;28;20054;-45
2022/06/16 07:59:31;;;;;;;5.82;3.63;;;;;;;26.33;44.24;100769.16;4989476;28;20042;-47
2022/06/16 08:01:57;;;;;;;5.22;3.53;;;;;;;26.55;43.86;100770.56;4983432;28;20042;-47
2022/06/16 08:04:24;;;;;;;6.50;3.75;;;;;;;26.76;43.50;100771.09;4982078;28;20417;-46
2022/06/16 08:06:52;;;;;;;5.28;4.15;;;;;;;27.00;43.20;100762.59;4980036;28;20186;-48
2022/06/16 08:09:19;;;;;;;7.75;4.03;;;;;;;27.24;42.51;100771.81;4981931;28;20058;-51
2022/06/16 08:14:36;;;;;;;7.38;4.32;;;;;;;27.55;42.02;100777.88;4989172;28;20116;-52
2022/06/16 08:17:06;;;;;;;6.20;3.53;;;;;;;27.70;41.81;100776.91;4984403;28;20046;-51
2022/06/16 08:19:33;;;;;;;7.55;5.32;;;;;;;27.85;40.87;100758.25;4983307;28;20627;-51
2022/06/16 08:22:00;;;;;;;6.63;3.90;;;;;;;28.02;41.72;100758.97;4983706;28;20101;-52
2022/06/16 08:24:27;;;;;;;9.65;5.03;;;;;;;28.09;41.08;100754.94;4982314;28;20380;-47
2022/06/16 08:26:53;;;;;;;5.05;3.20;;;;;;;28.26;40.94;100760.97;4983418;28;20206;-47
2022/06/16 08:29:20;;;;;;;5.07;3.67;;;;;;;28.39;40.35;100777.88;4988126;28;20055;-52
2022/06/16 08:31:47;;;;;;;7.93;4.20;;;;;;;28.60;41.45;100775.56;4982893;28;20105;-51
2022/06/16 08:34:13;;;;;;;6.60;3.72;;;;;;;28.80;40.90;100777.84;4988489;28;20038;-49
2022/06/16 08:36:40;;;;;;;5.80;2.88;;;;;;;28.98;40.97;100779.25;4986777;28;20105;-53
2022/06/16 08:39:08;;;;;;;10.20;3.80;;;;;;;29.16;39.94;100764.75;4986210;28;20470;-51
2022/06/16 08:41:45;;;;;;;7.95;4.30;;;;;;;29.22;40.21;100773.16;4979797;28;20042;-50
2022/06/16 08:47:03;;;;;;;8.02;5.13;;;;;;;29.43;39.78;100761.94;5037050;27;20410;-52
2022/06/16 09:00:10;;;;;;;8.93;6.43;;;;;;;30.18;37.66;100759.25;5092941;27;20407;-43
2022/06/16 09:11:24;;;;;;;9.40;4.57;;;;;;;30.84;36.40;100735.66;5028517;28;20406;-50
2022/06/16 09:27:01;;;;;;;8.75;5.00;;;;;;;31.09;36.49;100760.44;5036029;28;20412;-44
2022/06/16 15:30:32;;;;;;;4.40;3.60;;;;;;;32.40;31.61;100712.44;5073307;27;20385;-54
2022/06/16 15:36:16;;;;;;;4.97;3.80;;;;;;;32.54;31.29;100714.81;5037234;28;20080;-52
2022/06/16 15:38:47;;;;;;;6.25;3.88;;;;;;;32.55;32.20;100716.50;5048322;28;20555;-47
2022/06/16 15:41:35;;;;;;;3.83;2.75;;;;;;;32.50;32.20;100713.38;5036141;28;20100;-50
2022/06/16 15:44:07;;;;;;;5.03;3.63;;;;;;;32.63;31.57;100707.81;5033153;28;20057;-54
2022/06/16 15:46:39;;;;;;;4.60;3.50;;;;;;;32.67;31.63;100708.38;5051003;28;20045;-46
2022/06/16 15:49:06;;;;;;;6.07;3.75;;;;;;;32.70;32.02;100703.59;5048745;28;20060;-50
2022/06/16 15:51:35;;;;;;;3.90;3.47;;;;;;;32.68;31.50;100704.72;5052746;28;20072;-53
2022/06/16 15:54:03;;;;;;;3.47;3.17;;;;;;;32.64;32.12;100708.63;5047265;28;20057;-49
2022/06/16 15:56:34;;;;;;;3.78;3.15;;;;;;;32.65;31.38;100718.41;5033926;28;20071;-51
2022/06/16 15:59:06;;;;;;;6.15;3.47;;;;;;;32.62;31.40;100726.72;5038387;28;20041;-48
2022/06/16 16:01:37;;;;;;;4.78;3.33;;;;;;;32.60;31.02;100717.94;5034139;28;20068;-53
2022/06/16 16:04:05;;;;;;;4.05;3.65;;;;;;;32.60;31.33;100713.44;5046951;28;20048;-54
2022/06/16 16:06:36;;;;;;;3.80;3.25;;;;;;;32.55;31.30;100710.28;5025004;28;20888;-49
2022/06/16 16:09:09;;;;;;;4.65;3.35;;;;;;;32.47;31.18;100712.78;5062030;28;20048;-52
2022/06/16 16:11:37;;;;;;;5.75;3.83;;;;;;;32.40;31.53;100713.28;5055064;28;20049;-52
2022/06/16 16:14:11;;;;;;;4.07;3.67;;;;;;;32.38;31.17;100703.69;5059055;28;20102;-51
2022/06/16 16:16:51;;;;;;;3.20;2.90;;;;;;;32.36;31.08;100708.31;5046264;28;20052;-53
2022/06/16 16:19:18;;;;;;;4.30;3.45;;;;;;;32.40;31.35;100707.06;5036616;28;20090;-54
2022/06/16 16:21:57;;;;;;;4.20;3.60;;;;;;;32.39;31.19;100705.38;5054735;28;20127;-56
2022/06/16 16:24:35;;;;;;;4.13;3.00;;;;;;;32.32;30.92;100695.16;5040418;28;20102;-47
2022/06/16 16:27:07;;;;;;;4.20;3.72;;;;;;;32.36;31.29;100698.44;5041037;28;20063;-55
2022/06/16 16:29:35;;;;;;;5.70;5.10;;;;;;;32.37;30.98;100697.47;5035602;28;20049;-54
2022/06/16 16:34:46;;;;;;;6.30;4.03;;;;;;;32.27;30.39;100697.41;5034212;27;20402;-50
2022/06/16 16:40:21;;;;;;;5.13;3.42;;;;;;;32.41;30.23;100690.00;5044432;27;20417;-48
2022/06/16 16:43:05;;;;;;;4.43;3.83;;;;;;;32.05;30.95;100693.84;5014460;28;20054;-56
2022/06/16 16:45:52;;;;;;;10.07;5.65;;;;;;;31.90;30.71;100693.31;5011977;28;20049;-53
2022/06/16 16:53:37;;;;;;;5.22;2.17;;;;;;;31.76;31.40;100699.81;5085348;27;20378;-54
2022/06/16 16:58:47;;;;;;;4.68;2.67;;;;;;;31.74;31.24;100691.03;5057909;27;20757;-55
2022/06/16 17:01:15;;;;;;;2.38;2.08;;;;;;;31.71;30.99;100690.44;5037730;28;20060;-51
2022/06/16 17:03:42;;;;;;;5.13;2.22;;;;;;;31.64;31.32;100684.75;5041436;28;20045;-57
2022/06/16 17:06:10;;;;;;;3.78;1.77;;;;;;;31.53;30.69;100681.13;5038432;28;20045;-55
2022/06/16 17:08:37;;;;;;;2.80;1.67;;;;;;;31.39;31.16;100692.09;5040493;28;20052;-50
2022/06/16 17:13:54;;;;;;;2.58;2.10;;;;;;;31.16;31.41;100697.47;5072588;28;20048;-50
2022/06/16 17:16:21;;;;;;;;;;;;;;;30.73;31.88;100691.03;5078869;28;20557;-55
2022/06/16 17:18:50;;;;;;;22.77;13.98;;;;;;;30.87;32.07;100689.97;5080570;28;19974;-53
2022/06/16 17:21:17;;;;;;;20.48;10.00;;;;;;;30.74;31.93;100690.94;5076662;28;20130;-52
2022/06/16 17:23:50;;;;;;;20.08;11.75;;;;;;;30.69;32.25;100689.56;5084343;28;20052;-51
2022/06/16 17:26:19;;;;;;;6.72;4.20;;;;;;;30.62;32.31;100695.38;5075080;28;20037;-49
2022/06/16 17:28:45;;;;;;;5.43;3.25;;;;;;;30.55;33.33;100693.28;5055302;28;20054;-49
2022/06/16 17:31:13;;;;;;;9.75;2.72;;;;;;;30.51;33.30;100693.53;5075013;28;20064;-51
2022/06/16 17:33:40;;;;;;;4.82;3.97;;;;;;;30.47;34.19;100691.22;5077432;28;20411;-49
2022/06/16 17:36:07;;;;;;;3.72;2.63;;;;;;;30.42;33.69;100694.22;5076362;28;20079;-48
2022/06/16 17:38:38;;;;;;;7.40;2.58;;;;;;;30.37;34.10;100702.63;5072246;28;20041;-51
2022/06/16 17:41:16;;;;;;;2.65;2.17;;;;;;;30.31;34.33;100702.22;5081675;28;20053;-50
2022/06/16 17:43:43;;;;;;;3.20;2.25;;;;;;;30.29;34.22;100694.31;5078910;28;20097;-53
2022/06/16 17:46:10;;;;;;;3.83;2.58;;;;;;;30.26;34.35;100689.25;5076017;28;20519;-52
2022/06/16 17:48:57;;;;;;;3.35;2.28;;;;;;;30.19;35.04;100682.66;5073702;28;20055;-46
2022/06/16 17:51:24;;;;;;;5.38;2.47;;;;;;;30.11;34.54;100680.53;5076964;28;20119;-55
2022/06/16 17:59:40;;;;;;;7.10;2.60;;;;;;;29.80;35.42;100674.81;5089836;28;20048;-51
2022/06/16 18:02:13;;;;;;;4.22;2.85;;;;;;;29.69;35.61;100676.50;5074540;28;20060;-57
2022/06/16 18:04:40;;;;;;;6.20;2.50;;;;;;;29.63;35.91;100682.28;5072235;28;20622;-53
2022/06/16 18:07:07;;;;;;;5.35;2.50;;;;;;;29.56;36.25;100667.69;5079199;28;20040;-55
2022/06/16 18:09:36;;;;;;;5.68;2.65;;;;;;;29.42;36.51;100666.88;5062008;28;20071;-53
2022/06/16 18:12:03;;;;;;;7.38;2.67;;;;;;;29.36;37.64;100669.97;5066805;28;20060;-52
2022/06/16 18:14:30;;;;;;;3.30;2.70;;;;;;;29.29;37.22;100684.72;5062966;28;20068;-52
2022/06/16 18:17:00;;;;;;;6.07;2.75;;;;;;;29.22;37.67;100684.31;5059481;28;20048;-54
2022/06/16 18:19:27;;;;;;;4.78;2.33;;;;;;;29.14;36.82;100670.69;5063427;28;21874;-51
2022/06/16 18:21:53;;;;;;;4.68;2.75;;;;;;;29.09;37.21;100673.66;5067332;28;20052;-49
2022/06/16 18:24:24;;;;;;;5.53;1.90;;;;;;;29.03;37.10;100658.97;5067623;28;20045;-57
2022/06/16 18:27:02;;;;;;;7.40;2.63;;;;;;;28.91;37.63;100666.00;5066429;28;20040;-52
2022/06/16 18:29:30;;;;;;;5.95;2.33;;;;;;;28.77;37.85;100663.44;5062347;28;20063;-51
2022/06/16 18:31:57;;;;;;;3.90;2.63;;;;;;;28.66;38.57;100675.72;5064977;28;20045;-51
2022/06/16 18:34:25;;;;;;;4.18;3.10;;;;;;;28.58;38.64;100675.38;5065347;28;20044;-50
2022/06/16 18:36:51;;;;;;;5.32;3.03;;;;;;;28.48;39.27;100668.00;5062093;28;20735;-49
2022/06/16 18:39:18;;;;;;;5.45;2.67;;;;;;;28.43;38.97;100664.81;5052634;28;20045;-55
2022/06/16 18:41:50;;;;;;;3.90;2.47;;;;;;;28.38;38.76;100661.63;5069390;28;20699;-50
2022/06/16 18:44:17;;;;;;;6.07;2.40;;;;;;;28.31;39.26;100668.34;5061984;28;20049;-52
2022/06/16 18:47:00;;;;;;;8.50;2.33;;;;;;;28.26;38.84;100665.13;5064078;28;20045;-51
2022/06/16 18:49:31;;;;;;;5.55;2.13;;;;;;;28.19;38.91;100665.53;5065267;28;20046;-57
2022/06/16 18:52:14;;;;;;;4.45;2.25;;;;;;;28.10;38.91;100658.16;5064739;28;20044;-52
2022/06/16 18:54:42;;;;;;;4.07;2.47;;;;;;;28.00;38.54;100668.59;5060472;28;20120;-50
2022/06/16 18:57:10;;;;;;;3.58;1.95;;;;;;;27.92;39.51;100657.56;5057241;28;20102;-50
2022/06/16 18:59:38;;;;;;;3.75;2.92;;;;;;;27.88;38.79;100659.59;5061149;28;20056;-57
2022/06/16 19:02:15;;;;;;;5.20;2.22;;;;;;;27.82;39.02;100660.84;5060999;28;20064;-49
2022/06/16 19:04:42;;;;;;;2.97;2.20;;;;;;;27.74;39.22;100665.84;5057732;28;20044;-55
2022/06/16 19:07:11;;;;;;;3.00;2.15;;;;;;;27.68;38.81;100661.78;5062609;28;20040;-55
2022/06/16 19:09:38;;;;;;;;;;;;;;;27.32;39.72;100658.69;5060019;28;20057;-54
2022/06/16 19:12:22;;;;;;;2.90;2.45;;;;;;;27.49;39.16;100655.91;5062750;28;20372;-54
2022/06/16 19:17:50;;;;;;;4.03;2.88;;;;;;;27.37;39.67;100657.53;5050684;28;20408;-55
2022/06/16 19:20:23;;;;;;;5.50;3.30;;;;;;;27.28;40.17;100653.66;5012608;28;20049;-51
2022/06/16 19:22:51;;;;;;;3.85;3.42;;;;;;;27.19;40.10;100655.97;5012384;28;20045;-55
2022/06/16 19:25:20;;;;;;;4.35;2.38;;;;;;;27.11;40.38;100644.97;5011767;28;20458;-55
2022/06/16 19:27:48;;;;;;;4.85;3.42;;;;;;;27.00;40.45;100650.09;5006726;28;20053;-54
2022/06/16 19:30:22;;;;;;;4.95;3.72;;;;;;;26.81;40.23;100645.91;5009829;28;20462;-52
2022/06/16 19:32:49;;;;;;;6.90;3.63;;;;;;;26.69;41.17;100653.69;5006831;28;20057;-52
2022/06/16 19:35:17;;;;;;;3.53;3.05;;;;;;;26.64;40.74;100649.63;5012992;28;20497;-53
2022/06/16 19:37:45;;;;;;;3.38;3.00;;;;;;;26.60;40.98;100656.03;5013417;28;20049;-54
2022/06/16 19:40:13;;;;;;;6.85;3.20;;;;;;;26.53;40.62;100648.47;5002587;28;20605;-50
2022/06/16 19:42:44;;;;;;;4.55;3.40;;;;;;;26.48;40.56;100655.00;5012236;28;20108;-55
2022/06/16 19:50:49;;;;;;;5.38;3.15;;;;;;;26.87;39.99;100650.84;5060891;28;20385;-47
2022/06/16 19:53:22;;;;;;;3.58;2.05;;;;;;;26.41;40.47;100642.09;5024122;28;20045;-53
2022/06/16 19:55:51;;;;;;;3.38;2.65;;;;;;;26.30;40.65;100649.84;5019040;28;20660;-52
2022/06/16 19:58:18;;;;;;;3.70;2.40;;;;;;;26.21;40.27;100653.91;5021785;28;20054;-55
2022/06/16 20:00:48;;;;;;;2.78;2.15;;;;;;;26.16;40.55;100640.88;5018763;28;20053;-53
2022/06/16 20:03:17;;;;;;;3.60;2.50;;;;;;;26.08;40.83;100643.16;5028275;28;20124;-55
2022/06/16 20:05:45;;;;;;;4.50;2.55;;;;;;;26.03;40.62;100650.50;5020139;28;20052;-50